createdAt,value
2022-10-01T00:02:21.748Z,0
2022-10-01T00:07:25.303Z,0
2022-10-01T00:12:29.868Z,0
2022-10-01T00:17:34.388Z,0
2022-10-01T00:22:37.964Z,0
2022-10-01T00:27:42.640Z,0
2022-10-01T00:32:47.015Z,0
2022-10-01T00:37:50.551Z,0
2022-10-01T00:42:55.120Z,0
2022-10-01T00:47:59.611Z,0
2022-10-01T00:53:04.146Z,0
2022-10-01T00:58:07.710Z,0
2022-10-01T01:03:11.247Z,0
2022-10-01T01:08:15.797Z,0
2022-10-01T01:13:20.311Z,0
2022-10-01T01:18:23.892Z,0
2022-10-01T01:23:28.454Z,0
2022-10-01T01:28:32.947Z,0
2022-10-01T01:33:37.458Z,0
2022-10-01T01:38:41.029Z,0
2022-10-01T01:43:45.595Z,0
2022-10-01T01:48:50.105Z,0
2022-10-01T01:53:53.657Z,0
2022-10-01T01:58:58.163Z,0
2022-10-01T02:04:02.707Z,0
2022-10-01T02:09:06.281Z,0
2022-10-01T02:14:10.768Z,0
2022-10-01T02:19:15.332Z,0
2022-10-01T02:24:18.924Z,0
2022-10-01T02:29:23.398Z,0
2022-10-01T02:34:27.944Z,0
2022-10-01T02:39:32.550Z,0
2022-10-01T02:44:36.005Z,0
2022-10-01T02:49:40.552Z,0
2022-10-01T02:54:45.102Z,0
2022-10-01T02:59:48.663Z,0
2022-10-01T03:04:53.167Z,0
2022-10-01T03:09:57.741Z,0
2022-10-01T03:15:01.253Z,0
2022-10-01T03:20:05.811Z,0
2022-10-01T03:25:10.354Z,0
2022-10-01T03:30:13.871Z,0
2022-10-01T03:35:18.393Z,0
2022-10-01T03:40:23.003Z,0
2022-10-01T03:45:27.497Z,0
2022-10-01T03:50:31.037Z,0
2022-10-01T03:55:35.583Z,0
2022-10-01T04:00:40.103Z,0
2022-10-01T04:05:43.659Z,0
2022-10-01T04:10:48.198Z,0
2022-10-01T04:15:52.727Z,0
2022-10-01T04:20:56.265Z,0
2022-10-01T04:26:00.811Z,0
2022-10-01T04:31:05.473Z,0
2022-10-01T04:36:08.871Z,0
2022-10-01T04:41:13.442Z,0
2022-10-01T04:46:18.014Z,0
2022-10-01T04:51:22.476Z,0
2022-10-01T04:56:26.152Z,0
2022-10-01T05:01:30.678Z,0
2022-10-01T05:06:35.077Z,0
2022-10-01T05:11:38.715Z,0
2022-10-01T05:16:42.286Z,4
2022-10-01T05:21:46.712Z,8
2022-10-01T05:26:51.274Z,20
2022-10-01T05:31:55.880Z,28
2022-10-01T05:36:59.372Z,44
2022-10-01T05:42:06.375Z,40
2022-10-01T05:47:08.415Z,52
2022-10-01T05:52:11.992Z,104
2022-10-01T05:57:16.557Z,144
2022-10-01T06:02:21.207Z,156
2022-10-01T06:07:24.601Z,172
2022-10-01T06:12:29.154Z,216
2022-10-01T06:17:33.647Z,252
2022-10-01T06:22:37.217Z,340
2022-10-01T06:27:41.778Z,436
2022-10-01T06:32:46.340Z,420
2022-10-01T06:37:50.816Z,420
2022-10-01T06:42:56.846Z,520
2022-10-01T06:47:58.918Z,828
2022-10-01T06:53:03.416Z,888
2022-10-01T06:58:06.981Z,1016
2022-10-01T07:03:11.510Z,704
2022-10-01T07:08:16.025Z,796
2022-10-01T07:13:19.587Z,620
2022-10-01T07:18:24.144Z,632
2022-10-01T07:23:28.636Z,632
2022-10-01T07:28:32.210Z,1264
2022-10-01T07:33:36.718Z,2080
2022-10-01T07:38:41.257Z,3180
2022-10-01T07:43:45.822Z,4252
2022-10-01T07:48:49.348Z,3812
2022-10-01T07:53:53.948Z,2760
2022-10-01T07:58:58.477Z,2684
2022-10-01T08:04:01.977Z,3044
2022-10-01T08:09:06.630Z,3304
2022-10-01T08:14:11.064Z,2908
2022-10-01T08:19:14.651Z,3388
2022-10-01T08:24:19.141Z,3476
2022-10-01T08:29:23.691Z,3008
2022-10-01T08:34:27.207Z,4080
2022-10-01T08:39:31.791Z,4572
2022-10-01T08:44:36.310Z,3892
2022-10-01T08:49:40.806Z,5836
2022-10-01T08:54:44.375Z,6612
2022-10-01T08:59:48.968Z,6956
2022-10-01T09:04:55.150Z,4256
2022-10-01T09:09:57.007Z,5184
2022-10-01T09:15:01.525Z,4636
2022-10-01T09:20:06.054Z,3388
2022-10-01T09:25:09.809Z,3488
2022-10-01T09:30:14.150Z,3624
2022-10-01T09:35:17.690Z,5832
2022-10-01T09:40:22.201Z,5784
2022-10-01T09:45:26.833Z,11596
2022-10-01T09:50:30.280Z,10724
2022-10-01T09:55:34.830Z,15760
2022-10-01T10:00:39.450Z,13912
2022-10-01T10:05:42.951Z,18432
2022-10-01T10:10:47.595Z,16576
2022-10-01T10:15:52.089Z,29952
2022-10-01T10:20:55.582Z,21920
2022-10-01T10:26:00.111Z,30624
2022-10-01T10:31:04.679Z,33792
2022-10-01T10:36:09.215Z,22368
2022-10-01T10:41:12.675Z,8076
2022-10-01T10:46:17.359Z,25504
2022-10-01T10:51:21.747Z,17344
2022-10-01T10:56:25.277Z,9584
2022-10-01T11:01:30.068Z,12700
2022-10-01T11:06:34.661Z,13612
2022-10-01T11:11:37.983Z,9260
2022-10-01T11:16:42.464Z,113312
2022-10-01T11:21:46.983Z,57920
2022-10-01T11:26:53.322Z,105792
2022-10-01T11:31:55.104Z,100800
2022-10-01T11:36:59.614Z,97376
2022-10-01T11:42:04.152Z,107520
2022-10-01T11:47:07.726Z,21440
2022-10-01T11:52:12.211Z,73792
2022-10-01T11:57:16.792Z,27296
2022-10-01T12:02:20.476Z,90176
2022-10-01T12:07:24.838Z,91680
2022-10-01T12:12:29.398Z,7804
2022-10-01T12:17:32.980Z,6204
2022-10-01T12:22:37.476Z,8740
2022-10-01T12:27:42.022Z,13080
2022-10-01T12:32:45.603Z,13928
2022-10-01T12:37:50.095Z,33856
2022-10-01T12:42:54.612Z,12328
2022-10-01T12:47:59.214Z,25504
2022-10-01T12:53:02.724Z,65312
2022-10-01T12:58:07.239Z,5440
2022-10-01T13:03:11.815Z,3128
2022-10-01T13:08:15.341Z,13128
2022-10-01T13:13:19.884Z,11492
2022-10-01T13:18:24.394Z,9880
2022-10-01T13:23:27.914Z,10504
2022-10-01T13:28:32.566Z,24576
2022-10-01T13:33:37.042Z,42656
2022-10-01T13:38:40.542Z,72928
2022-10-01T13:43:45.115Z,55840
2022-10-01T13:48:48.718Z,25472
2022-10-01T13:53:53.375Z,6044
2022-10-01T13:58:57.800Z,4968
2022-10-01T14:04:01.298Z,12496
2022-10-01T14:09:05.821Z,9292
2022-10-01T14:14:10.327Z,58304
2022-10-01T14:19:13.911Z,57216
2022-10-01T14:24:18.409Z,56544
2022-10-01T14:29:22.994Z,54528
2022-10-01T14:34:27.543Z,52896
2022-10-01T14:39:31.018Z,48576
2022-10-01T14:44:35.587Z,28384
2022-10-01T14:49:40.123Z,41792
2022-10-01T14:54:43.664Z,37856
2022-10-01T14:59:48.195Z,35968
2022-10-01T15:04:52.812Z,9444
2022-10-01T15:09:56.268Z,5996
2022-10-01T15:15:00.894Z,3972
2022-10-01T15:20:05.391Z,4156
2022-10-01T15:25:08.908Z,8372
2022-10-01T15:30:13.443Z,13448
2022-10-01T15:35:17.968Z,13492
2022-10-01T15:40:22.491Z,11468
2022-10-01T15:45:26.068Z,18368
2022-10-01T15:50:30.628Z,8816
2022-10-01T15:55:35.127Z,12768
2022-10-01T16:00:38.723Z,10340
2022-10-01T16:05:43.197Z,10196
2022-10-01T16:10:47.745Z,4096
2022-10-01T16:15:51.285Z,3008
2022-10-01T16:20:55.849Z,2312
2022-10-01T16:26:00.324Z,2040
2022-10-01T16:31:04.048Z,1908
2022-10-01T16:36:08.484Z,4056
2022-10-01T16:41:12.936Z,1668
2022-10-01T16:46:17.577Z,1272
2022-10-01T16:51:21.075Z,964
2022-10-01T16:56:27.291Z,756
2022-10-01T17:01:30.239Z,564
2022-10-01T17:06:33.930Z,396
2022-10-01T17:11:38.194Z,240
2022-10-01T17:16:42.770Z,132
2022-10-01T17:21:46.314Z,64
2022-10-01T17:26:50.789Z,24
2022-10-01T17:31:55.403Z,12
2022-10-01T17:36:58.927Z,4
2022-10-01T17:42:03.440Z,4
2022-10-01T17:47:09.043Z,0
2022-10-01T17:52:12.516Z,0
2022-10-01T17:57:16.157Z,0
2022-10-01T18:02:40.279Z,0
2022-10-01T18:07:24.169Z,0
2022-10-01T18:12:28.847Z,0
2022-10-01T18:17:32.311Z,0
2022-10-01T18:22:36.769Z,0
2022-10-01T18:27:41.281Z,0
2022-10-01T18:32:45.956Z,0
2022-10-01T18:37:49.447Z,0
2022-10-01T18:42:53.907Z,0
2022-10-01T18:47:58.441Z,0
2022-10-01T18:53:02.042Z,0
2022-10-01T18:58:06.749Z,0
2022-10-01T19:03:11.049Z,0
2022-10-01T19:08:14.650Z,0
2022-10-01T19:13:19.163Z,0
2022-10-01T19:18:23.892Z,0
2022-10-01T19:23:27.236Z,0
2022-10-01T19:28:31.817Z,0
2022-10-01T19:33:36.303Z,0
2022-10-01T19:38:40.869Z,0
2022-10-01T19:43:44.387Z,0
2022-10-01T19:48:48.905Z,0
2022-10-01T19:53:53.476Z,0
2022-10-01T19:58:57.049Z,0
2022-10-01T20:04:01.536Z,0
2022-10-01T20:09:06.117Z,0
2022-10-01T20:14:09.638Z,0
2022-10-01T20:19:14.147Z,0
2022-10-01T20:24:18.835Z,0
2022-10-01T20:29:22.263Z,0
2022-10-01T20:34:26.804Z,0
2022-10-01T20:39:31.360Z,0
2022-10-01T20:44:35.884Z,0
2022-10-01T20:49:39.417Z,0
2022-10-01T20:54:43.948Z,0
2022-10-01T20:59:48.500Z,0
2022-10-01T21:04:52.044Z,0
2022-10-01T21:09:56.560Z,0
2022-10-01T21:15:01.080Z,0
2022-10-01T21:20:05.132Z,0
2022-10-01T21:25:09.173Z,0
2022-10-01T21:30:13.721Z,0
2022-10-01T21:35:17.265Z,0
2022-10-01T21:40:21.939Z,0
2022-10-01T21:45:26.412Z,0
2022-10-01T21:50:30.839Z,0
2022-10-01T21:55:34.412Z,0
2022-10-01T22:00:39.037Z,0
2022-10-01T22:05:43.498Z,0
2022-10-01T22:10:47.087Z,0
2022-10-01T22:15:50.575Z,0
2022-10-01T22:20:55.115Z,0
2022-10-01T22:25:59.706Z,0
2022-10-01T22:31:04.183Z,0
2022-10-01T22:36:07.727Z,0
2022-10-01T22:41:12.306Z,0
2022-10-01T22:46:16.823Z,0
2022-10-01T22:51:20.336Z,0
2022-10-01T22:56:24.911Z,0
2022-10-01T23:01:29.488Z,0
2022-10-01T23:06:33.237Z,0
2022-10-01T23:11:37.536Z,0
2022-10-01T23:16:42.121Z,0
2022-10-01T23:21:45.638Z,0
2022-10-01T23:26:50.170Z,0
2022-10-01T23:31:54.712Z,0
2022-10-01T23:36:59.219Z,0
2022-10-01T23:42:02.789Z,0
2022-10-01T23:47:07.310Z,0
2022-10-01T23:52:11.854Z,0
2022-10-01T23:57:15.475Z,0
